createdAt,value
2017-09-18T00:01:38.002Z,19.42
2017-09-18T00:04:05.613Z,18.95
2017-09-18T00:06:33.214Z,19.90
2017-09-18T00:09:00.794Z,19.40
2017-09-18T00:11:28.418Z,21.37
2017-09-18T00:13:56.017Z,19.77
2017-09-18T00:16:23.654Z,21.70
2017-09-18T00:18:51.245Z,27.52
2017-09-18T00:21:18.832Z,19.48
2017-09-18T00:23:46.457Z,19.40
2017-09-18T00:26:14.088Z,22.50
2017-09-18T00:28:41.749Z,23.17
2017-09-18T00:31:09.333Z,24.00
2017-09-18T00:33:36.919Z,26.58
2017-09-18T00:36:05.373Z,21.27
2017-09-18T00:38:33.008Z,20.70
2017-09-18T00:41:00.641Z,19.02
2017-09-18T00:43:28.244Z,23.20
2017-09-18T00:45:55.836Z,23.00
2017-09-18T00:48:23.487Z,23.17
2017-09-18T00:50:51.114Z,19.35
2017-09-18T00:53:19.888Z,25.12
2017-09-18T00:55:47.492Z,22.98
2017-09-18T00:58:15.092Z,21.35
2017-09-18T01:00:42.699Z,20.85
2017-09-18T01:03:10.289Z,24.92
2017-09-18T01:05:38.666Z,22.02
2017-09-18T01:08:06.262Z,20.92
2017-09-18T01:10:33.883Z,23.40
2017-09-18T01:13:01.478Z,21.87
2017-09-18T01:15:29.078Z,22.58
2017-09-18T01:17:56.697Z,22.55
2017-09-18T01:20:24.310Z,28.30
2017-09-18T01:22:51.946Z,23.00
2017-09-18T01:25:19.550Z,20.60
2017-09-18T01:27:47.293Z,23.12
2017-09-18T01:30:14.942Z,26.60
2017-09-18T01:32:42.536Z,21.52
2017-09-18T01:35:10.185Z,24.58
2017-09-18T01:37:37.817Z,25.37
2017-09-18T01:40:05.417Z,23.00
2017-09-18T01:42:32.996Z,24.80
2017-09-18T01:45:01.399Z,31.23
2017-09-18T01:47:29.003Z,26.87
2017-09-18T01:49:56.621Z,26.55
2017-09-18T01:52:24.222Z,25.33
2017-09-18T01:54:51.812Z,27.17
2017-09-18T01:57:20.200Z,26.87
2017-09-18T01:59:48.553Z,25.02
2017-09-18T02:02:16.157Z,26.58
2017-09-18T02:04:43.799Z,25.62
2017-09-18T02:07:12.192Z,25.10
2017-09-18T02:09:39.786Z,24.35
2017-09-18T02:12:08.131Z,20.65
2017-09-18T02:14:35.756Z,26.55
2017-09-18T02:17:04.132Z,24.30
2017-09-18T02:19:31.728Z,25.00
2017-09-18T02:21:59.322Z,22.27
2017-09-18T02:24:26.986Z,23.23
2017-09-18T02:26:54.561Z,21.20
2017-09-18T02:29:22.169Z,23.58
2017-09-18T02:31:49.791Z,22.65
2017-09-18T02:34:17.455Z,19.42
2017-09-18T02:36:45.082Z,20.25
2017-09-18T02:39:12.660Z,20.52
2017-09-18T02:41:40.254Z,21.08
2017-09-18T02:44:08.691Z,23.17
2017-09-18T02:46:37.084Z,21.62
2017-09-18T02:49:04.699Z,23.80
2017-09-18T02:51:32.283Z,20.65
2017-09-18T02:53:59.894Z,20.65
2017-09-18T02:56:28.241Z,22.20
2017-09-18T02:58:55.855Z,22.35
2017-09-18T03:01:23.434Z,20.95
2017-09-18T03:03:51.059Z,19.98
2017-09-18T03:06:19.416Z,21.25
2017-09-18T03:08:47.009Z,21.48
2017-09-18T03:11:14.699Z,25.62
2017-09-18T03:13:42.290Z,23.02
2017-09-18T03:16:09.909Z,25.00
2017-09-18T03:18:37.496Z,20.85
2017-09-18T03:21:05.103Z,20.67
2017-09-18T03:23:32.695Z,19.90
2017-09-18T03:26:00.285Z,24.42
2017-09-18T03:28:27.884Z,21.02
2017-09-18T03:30:55.457Z,21.00
2017-09-18T03:33:23.073Z,23.85
2017-09-18T03:35:50.661Z,19.58
2017-09-18T03:38:18.266Z,19.58
2017-09-18T03:40:45.870Z,22.02
2017-09-18T03:43:13.495Z,26.40
2017-09-18T03:45:41.188Z,25.70
2017-09-18T03:48:08.784Z,20.80
2017-09-18T03:50:36.408Z,22.08
2017-09-18T03:53:04.042Z,20.33
2017-09-18T03:55:31.638Z,22.35
2017-09-18T03:57:59.263Z,21.92
2017-09-18T04:00:26.877Z,21.12
2017-09-18T04:02:55.285Z,20.85
2017-09-18T04:05:22.894Z,23.25
2017-09-18T04:07:50.488Z,20.25
2017-09-18T04:10:18.170Z,21.87
2017-09-18T04:12:45.764Z,25.95
2017-09-18T04:15:13.468Z,24.77
2017-09-18T04:17:41.079Z,25.37
2017-09-18T04:20:08.736Z,22.87
2017-09-18T04:22:36.342Z,21.77
2017-09-18T04:25:04.699Z,20.88
2017-09-18T04:27:32.334Z,25.48
2017-09-18T04:29:59.917Z,19.35
2017-09-18T04:32:27.642Z,22.42
2017-09-18T04:34:55.311Z,27.00
2017-09-18T04:37:22.934Z,24.08
2017-09-18T04:39:51.324Z,26.00
2017-09-18T04:42:19.693Z,20.70
2017-09-18T04:44:47.290Z,20.17
2017-09-18T04:47:14.928Z,19.33
2017-09-18T04:49:42.577Z,26.40
2017-09-18T04:52:10.926Z,21.65
2017-09-18T04:54:38.546Z,20.73
2017-09-18T04:57:06.173Z,21.08
2017-09-18T04:59:33.761Z,21.80
2017-09-18T05:02:01.399Z,24.98
2017-09-18T05:04:29.779Z,22.27
2017-09-18T05:06:57.391Z,20.10
2017-09-18T05:09:25.153Z,22.83
2017-09-18T05:11:53.570Z,21.50
2017-09-18T05:14:21.172Z,22.33
2017-09-18T05:16:48.775Z,23.27
2017-09-18T05:19:16.390Z,22.90
2017-09-18T05:21:43.992Z,24.70
2017-09-18T05:24:11.633Z,19.17
2017-09-18T05:26:39.246Z,23.35
2017-09-18T05:29:07.628Z,19.62
2017-09-18T05:31:36.045Z,21.52
2017-09-18T05:34:03.773Z,17.33
2017-09-18T05:36:32.158Z,25.70
2017-09-18T05:38:59.780Z,25.70
2017-09-18T05:41:27.447Z,20.77
2017-09-18T05:43:55.175Z,23.10
2017-09-18T05:46:22.795Z,25.30
2017-09-18T05:48:50.388Z,23.25
2017-09-18T05:51:18.021Z,20.17
2017-09-18T05:53:45.642Z,21.33
2017-09-18T05:56:13.292Z,18.90
2017-09-18T05:58:40.935Z,23.75
2017-09-18T06:01:08.539Z,28.02
2017-09-18T06:03:36.203Z,21.27
2017-09-18T06:06:03.786Z,25.17
2017-09-18T06:08:32.196Z,26.33
2017-09-18T06:10:59.842Z,24.73
2017-09-18T06:13:27.469Z,31.95
2017-09-18T06:15:55.054Z,23.58
2017-09-18T06:18:23.412Z,23.50
2017-09-18T06:20:51.034Z,26.35
2017-09-18T06:23:18.620Z,26.02
2017-09-18T06:25:46.235Z,26.42
2017-09-18T06:28:13.820Z,24.52
2017-09-18T06:30:41.438Z,26.10
2017-09-18T06:33:09.834Z,26.87
2017-09-18T06:35:37.449Z,27.25
2017-09-18T06:38:05.051Z,22.62
2017-09-18T06:40:32.651Z,25.15
2017-09-18T06:43:00.300Z,24.40
2017-09-18T06:45:27.923Z,22.77
2017-09-18T06:47:56.323Z,26.35
2017-09-18T06:50:23.913Z,22.70
2017-09-18T06:52:51.555Z,24.65
2017-09-18T06:55:19.168Z,23.73
2017-09-18T06:57:47.575Z,29.70
2017-09-18T07:00:15.191Z,24.35
2017-09-18T07:02:42.824Z,25.23
2017-09-18T07:05:10.452Z,25.15
2017-09-18T07:07:38.090Z,25.65
2017-09-18T07:10:05.739Z,24.95
2017-09-18T07:12:33.354Z,24.02
2017-09-18T07:15:00.990Z,26.67
2017-09-18T07:17:28.611Z,20.00
2017-09-18T07:19:56.205Z,20.23
2017-09-18T07:22:24.650Z,19.10
2017-09-18T07:24:52.246Z,20.23
2017-09-18T07:27:20.662Z,19.27
2017-09-18T07:29:48.256Z,22.05
2017-09-18T07:32:15.882Z,17.20
2017-09-18T07:34:43.530Z,19.52
2017-09-18T07:37:11.205Z,17.75
2017-09-18T07:39:38.850Z,19.10
2017-09-18T07:42:06.496Z,16.58
2017-09-18T07:44:34.969Z,19.37
2017-09-18T07:47:03.460Z,16.00
2017-09-18T07:49:31.849Z,15.20
2017-09-18T07:51:59.511Z,16.77
2017-09-18T07:54:27.122Z,18.67
2017-09-18T07:56:54.796Z,14.25
2017-09-18T07:59:22.517Z,22.60
2017-09-18T08:01:50.157Z,16.30
2017-09-18T08:04:17.965Z,17.65
2017-09-18T08:06:45.583Z,19.80
2017-09-18T08:09:13.217Z,19.30
2017-09-18T08:11:40.839Z,18.17
2017-09-18T08:14:08.440Z,20.50
2017-09-18T08:16:36.842Z,18.70
2017-09-18T08:19:04.519Z,20.73
2017-09-18T08:21:32.137Z,20.62
2017-09-18T08:23:59.776Z,23.12
2017-09-18T08:26:27.466Z,25.85
2017-09-18T08:28:55.161Z,22.13
2017-09-18T08:31:22.843Z,27.17
2017-09-18T08:33:50.443Z,22.05
2017-09-18T08:36:18.104Z,25.25
2017-09-18T08:38:45.728Z,26.08
2017-09-18T08:41:15.702Z,23.05
2017-09-18T08:43:44.085Z,23.62
2017-09-18T08:46:12.502Z,32.90
2017-09-18T08:48:40.128Z,30.45
2017-09-18T08:51:07.798Z,27.37
2017-09-18T08:53:35.438Z,26.35
2017-09-18T08:56:03.056Z,35.90
2017-09-18T08:58:30.682Z,29.95
2017-09-18T09:00:58.341Z,31.37
2017-09-18T09:03:26.753Z,40.63
2017-09-18T09:05:54.397Z,33.22
2017-09-18T09:08:22.510Z,34.90
2017-09-18T09:10:50.173Z,35.83
2017-09-18T09:13:17.852Z,35.90
2017-09-18T09:15:46.274Z,37.47
2017-09-18T09:18:13.964Z,29.70
2017-09-18T09:20:41.597Z,33.85
2017-09-18T09:23:09.184Z,39.38
2017-09-18T09:25:37.148Z,46.35
2017-09-18T09:28:04.744Z,41.70
2017-09-18T09:30:32.370Z,37.00
2017-09-18T09:32:59.985Z,35.42
2017-09-18T09:35:28.362Z,30.35
2017-09-18T09:37:55.999Z,30.02
2017-09-18T09:40:23.631Z,30.00
2017-09-18T09:42:51.243Z,37.33
2017-09-18T09:45:19.667Z,32.20
2017-09-18T09:47:47.360Z,32.33
2017-09-18T09:50:15.841Z,35.43
2017-09-18T09:52:43.452Z,32.23
2017-09-18T09:55:11.066Z,29.70
2017-09-18T09:57:38.668Z,32.83
2017-09-18T10:00:07.072Z,33.47
2017-09-18T10:02:34.696Z,28.07
2017-09-18T10:05:02.297Z,26.37
2017-09-18T10:07:29.992Z,25.47
2017-09-18T10:09:57.618Z,29.97
2017-09-18T10:12:25.238Z,26.93
2017-09-18T10:14:52.928Z,25.80
2017-09-18T10:17:20.518Z,23.40
2017-09-18T10:19:48.162Z,30.00
2017-09-18T10:22:15.785Z,25.30
2017-09-18T10:24:44.189Z,22.03
2017-09-18T10:27:11.781Z,23.00
2017-09-18T10:29:39.386Z,25.40
2017-09-18T10:32:07.840Z,21.67
2017-09-18T10:34:35.452Z,26.63
2017-09-18T10:37:03.311Z,23.10
2017-09-18T10:39:31.045Z,24.00
2017-09-18T10:41:58.646Z,26.13
2017-09-18T10:44:26.327Z,20.70
2017-09-18T10:46:53.936Z,22.67
2017-09-18T10:49:21.546Z,19.87
2017-09-18T10:51:49.269Z,18.97
2017-09-18T10:54:17.082Z,17.40
2017-09-18T10:56:44.758Z,22.03
2017-09-18T10:59:13.160Z,24.57
2017-09-18T11:01:40.813Z,22.67
2017-09-18T11:04:08.440Z,18.87
2017-09-18T11:06:36.049Z,20.03
2017-09-18T11:09:03.778Z,21.20
2017-09-18T11:11:31.366Z,16.37
2017-09-18T11:13:59.044Z,19.23
2017-09-18T11:16:27.435Z,17.90
2017-09-18T11:18:55.071Z,19.67
2017-09-18T11:21:23.475Z,20.17
2017-09-18T11:23:51.100Z,19.63
2017-09-18T11:26:18.790Z,18.83
2017-09-18T11:28:46.379Z,17.30
2017-09-18T11:31:14.041Z,16.60
2017-09-18T11:33:41.673Z,14.93
2017-09-18T11:36:10.061Z,18.60
2017-09-18T11:38:37.657Z,17.50
2017-09-18T11:41:05.304Z,17.13
2017-09-18T11:43:32.945Z,18.33
2017-09-18T11:46:01.352Z,17.20
2017-09-18T11:48:28.963Z,17.90
2017-09-18T11:50:56.567Z,17.67
2017-09-18T11:53:24.166Z,15.77
2017-09-18T11:55:51.809Z,19.60
2017-09-18T11:58:19.399Z,16.40
2017-09-18T12:00:47.073Z,18.57
2017-09-18T12:03:14.720Z,17.63
2017-09-18T12:05:42.645Z,19.47
2017-09-18T12:08:10.297Z,17.63
2017-09-18T12:10:37.981Z,21.77
2017-09-18T12:13:05.615Z,18.73
2017-09-18T12:15:33.324Z,17.73
2017-09-18T12:18:00.976Z,21.03
2017-09-18T12:20:28.571Z,17.87
2017-09-18T12:22:56.179Z,19.13
2017-09-18T12:25:23.779Z,24.23
2017-09-18T12:27:51.408Z,21.17
2017-09-18T12:30:19.013Z,18.77
2017-09-18T12:32:47.395Z,20.50
2017-09-18T12:35:15.758Z,23.73
2017-09-18T12:37:43.359Z,20.67
2017-09-18T12:40:10.981Z,17.50
2017-09-18T12:42:38.616Z,18.77
2017-09-18T12:45:06.248Z,18.90
2017-09-18T12:47:33.833Z,17.63
2017-09-18T12:50:01.461Z,16.57
2017-09-18T12:52:29.060Z,18.03
2017-09-18T12:54:56.718Z,22.80
2017-09-18T12:57:24.310Z,21.80
2017-09-18T12:59:52.703Z,18.93
2017-09-18T13:02:21.150Z,16.50
2017-09-18T13:04:48.750Z,18.30
2017-09-18T13:07:17.200Z,19.93
2017-09-18T13:09:44.854Z,19.70
2017-09-18T13:12:12.503Z,16.60
2017-09-18T13:14:40.176Z,19.63
2017-09-18T13:17:08.585Z,15.13
2017-09-18T13:19:36.218Z,25.90
2017-09-18T13:22:03.879Z,12.77
2017-09-18T13:24:31.496Z,16.00
2017-09-18T13:26:59.114Z,13.67
2017-09-18T13:29:26.725Z,11.30
2017-09-18T13:31:54.407Z,16.23
2017-09-18T13:34:22.044Z,12.37
2017-09-18T13:36:49.680Z,14.60
2017-09-18T13:39:17.378Z,15.90
2017-09-18T13:41:44.984Z,23.27
2017-09-18T13:44:12.561Z,27.20
2017-09-18T13:46:40.205Z,29.33
2017-09-18T13:49:07.834Z,51.33
2017-09-18T13:51:35.638Z,14.83
2017-09-18T13:54:04.028Z,12.50
2017-09-18T13:56:31.665Z,18.60
2017-09-18T13:58:59.991Z,17.80
2017-09-18T14:01:27.674Z,20.57
2017-09-18T14:03:55.273Z,8.70
2017-09-18T14:06:23.821Z,10.30
2017-09-18T14:08:51.444Z,31.63
2017-09-18T14:11:19.036Z,15.40
2017-09-18T14:13:46.645Z,8.07
2017-09-18T14:16:14.277Z,9.40
2017-09-18T14:18:41.955Z,7.47
2017-09-18T14:21:09.538Z,11.60
2017-09-18T14:23:37.183Z,7.67
2017-09-18T14:26:04.836Z,13.13
2017-09-18T14:28:32.469Z,7.20
2017-09-18T14:31:00.129Z,7.20
2017-09-18T14:33:27.718Z,8.70
2017-09-18T14:35:55.377Z,18.23
2017-09-18T14:38:22.984Z,6.90
2017-09-18T14:40:50.618Z,7.57
2017-09-18T14:43:18.260Z,9.10
2017-09-18T14:45:45.834Z,6.83
2017-09-18T14:48:13.470Z,11.93
2017-09-18T14:50:41.067Z,9.10
2017-09-18T14:53:08.732Z,11.00
2017-09-18T14:55:37.069Z,10.57
2017-09-18T14:58:04.686Z,7.27
2017-09-18T15:00:33.075Z,6.90
2017-09-18T15:03:00.702Z,6.00
2017-09-18T15:05:28.324Z,8.17
2017-09-18T15:07:55.921Z,8.27
2017-09-18T15:10:23.520Z,6.07
2017-09-18T15:15:25.136Z,9.10
2017-09-18T15:17:52.813Z,6.70
2017-09-18T15:20:20.476Z,10.10
2017-09-18T15:22:48.118Z,17.07
2017-09-18T15:25:15.733Z,6.33
2017-09-18T15:27:43.342Z,27.33
2017-09-18T15:30:11.616Z,1.30
2017-09-18T15:32:39.205Z,2.13
2017-09-18T15:35:06.798Z,9.03
2017-09-18T15:37:34.423Z,41.57
2017-09-18T15:40:02.061Z,1.40
2017-09-18T15:42:29.627Z,1.90
2017-09-18T15:44:57.221Z,1.87
2017-09-18T15:47:25.606Z,6.68
2017-09-18T15:49:53.194Z,1.60
2017-09-18T15:52:20.775Z,1.10
2017-09-18T15:54:48.359Z,4.28
2017-09-18T15:57:16.743Z,2.25
2017-09-18T15:59:45.107Z,1.58
2017-09-18T16:02:12.841Z,2.20
2017-09-18T16:04:40.461Z,5.25
2017-09-18T16:07:08.810Z,2.65
2017-09-18T16:09:36.414Z,1.02
2017-09-18T16:12:04.032Z,3.90
2017-09-18T16:14:31.629Z,1.85
2017-09-18T16:16:59.201Z,2.62
2017-09-18T16:19:26.839Z,1.40
2017-09-18T16:21:55.243Z,3.72
2017-09-18T16:24:22.921Z,1.75
2017-09-18T16:26:50.532Z,1.25
2017-09-18T16:29:18.918Z,3.05
2017-09-18T16:31:46.571Z,1.92
2017-09-18T16:34:14.522Z,2.78
2017-09-18T16:36:42.218Z,3.33
2017-09-18T16:39:09.816Z,3.00
2017-09-18T16:41:37.396Z,4.35
2017-09-18T16:44:05.074Z,2.53
2017-09-18T16:46:32.646Z,2.42
2017-09-18T16:49:00.246Z,3.97
2017-09-18T16:51:27.833Z,5.28
2017-09-18T16:53:55.454Z,4.50
2017-09-18T16:56:23.049Z,3.75
2017-09-18T16:58:50.673Z,4.75
2017-09-18T17:01:18.386Z,5.57
2017-09-18T17:03:46.015Z,8.98
2017-09-18T17:06:13.623Z,4.20
2017-09-18T17:08:41.240Z,113.03
2017-09-18T17:11:08.878Z,53.22
2017-09-18T17:13:36.601Z,81.20
2017-09-18T17:16:04.221Z,14.55
2017-09-18T17:18:31.785Z,14.98
2017-09-18T17:20:59.391Z,1.90
2017-09-18T17:23:26.972Z,4.00
2017-09-18T17:25:55.380Z,5.60
2017-09-18T17:28:22.988Z,8.15
2017-09-18T17:30:51.364Z,2.47
2017-09-18T17:33:19.717Z,4.10
2017-09-18T17:35:47.295Z,2.97
2017-09-18T17:38:14.901Z,2.85
2017-09-18T17:40:42.500Z,3.10
2017-09-18T17:43:10.115Z,2.90
2017-09-18T17:45:37.695Z,3.72
2017-09-18T17:48:05.471Z,3.28
2017-09-18T17:50:33.111Z,7.47
2017-09-18T17:53:00.732Z,4.03
2017-09-18T17:55:28.353Z,4.35
2017-09-18T17:57:55.951Z,5.95
2017-09-18T18:00:24.350Z,3.70
2017-09-18T18:02:51.935Z,5.07
2017-09-18T18:05:19.536Z,3.42
2017-09-18T18:07:47.123Z,8.50
2017-09-18T18:10:14.716Z,4.18
2017-09-18T18:12:42.350Z,5.15
2017-09-18T18:15:09.931Z,6.93
2017-09-18T18:17:37.545Z,5.90
2017-09-18T18:20:05.898Z,4.70
2017-09-18T18:22:33.582Z,5.12
2017-09-18T18:25:01.959Z,6.50
2017-09-18T18:27:29.537Z,6.25
2017-09-18T18:29:57.895Z,6.68
2017-09-18T18:32:25.517Z,6.05
2017-09-18T18:34:53.148Z,7.75
2017-09-18T18:37:20.804Z,6.12
2017-09-18T18:39:48.501Z,7.05
2017-09-18T18:42:16.124Z,7.07
2017-09-18T18:44:43.777Z,7.90
2017-09-18T18:47:12.172Z,8.55
2017-09-18T18:49:39.787Z,8.68
2017-09-18T18:52:07.389Z,8.23
2017-09-18T18:54:35.750Z,9.95
2017-09-18T18:57:03.333Z,9.85
2017-09-18T18:59:30.886Z,10.00
2017-09-18T19:01:59.276Z,10.68
2017-09-18T19:04:26.947Z,10.80
2017-09-18T19:06:54.539Z,10.77
2017-09-18T19:09:22.139Z,9.60
2017-09-18T19:11:50.464Z,9.80
2017-09-18T19:14:18.084Z,11.23
2017-09-18T19:16:45.701Z,11.73
2017-09-18T19:19:14.196Z,13.30
2017-09-18T19:21:41.864Z,10.82
2017-09-18T19:24:09.505Z,13.32
2017-09-18T19:26:37.209Z,12.07
2017-09-18T19:29:05.577Z,12.50
2017-09-18T19:31:33.185Z,16.87
2017-09-18T19:34:00.920Z,16.52
2017-09-18T19:36:29.319Z,12.88
2017-09-18T19:38:56.935Z,12.55
2017-09-18T19:41:24.507Z,14.15
2017-09-18T19:43:52.122Z,14.73
2017-09-18T19:46:19.861Z,17.02
2017-09-18T19:48:47.472Z,15.43
2017-09-18T19:51:15.088Z,14.93
2017-09-18T19:53:42.691Z,16.92
2017-09-18T19:56:10.281Z,15.20
2017-09-18T19:58:37.861Z,14.55
2017-09-18T20:01:05.528Z,14.45
2017-09-18T20:03:33.104Z,18.00
2017-09-18T20:06:00.683Z,18.05
2017-09-18T20:08:28.324Z,14.35
2017-09-18T20:10:56.673Z,15.25
2017-09-18T20:13:24.292Z,17.00
2017-09-18T20:15:51.974Z,16.40
2017-09-18T20:18:19.571Z,15.32
2017-09-18T20:20:47.188Z,21.15
2017-09-18T20:23:14.823Z,18.42
2017-09-18T20:25:42.451Z,18.37
2017-09-18T20:28:10.047Z,21.12
2017-09-18T20:30:37.680Z,16.50
2017-09-18T20:33:05.294Z,20.92
2017-09-18T20:35:32.886Z,19.23
2017-09-18T20:38:00.514Z,14.60
2017-09-18T20:40:28.142Z,16.95
2017-09-18T20:42:56.649Z,17.40
2017-09-18T20:45:24.229Z,21.40
2017-09-18T20:47:51.837Z,16.80
2017-09-18T20:50:20.165Z,21.12
2017-09-18T20:52:47.892Z,19.50
2017-09-18T20:55:15.527Z,16.25
2017-09-18T20:57:43.116Z,17.73
2017-09-18T21:00:10.753Z,18.00
2017-09-18T21:02:39.209Z,16.20
2017-09-18T21:05:06.833Z,16.20
2017-09-18T21:07:34.463Z,17.48
2017-09-18T21:10:02.949Z,17.00
2017-09-18T21:12:30.589Z,15.45
2017-09-18T21:14:58.149Z,21.48
2017-09-18T21:17:25.742Z,17.37
2017-09-18T21:19:53.324Z,18.42
2017-09-18T21:22:20.966Z,19.85
2017-09-18T21:24:48.580Z,19.48
2017-09-18T21:27:16.160Z,18.90
2017-09-18T21:29:43.771Z,22.87
2017-09-18T21:32:11.425Z,17.73
2017-09-18T21:34:39.019Z,19.40
2017-09-18T21:37:06.622Z,22.13
2017-09-18T21:39:34.250Z,20.25
2017-09-18T21:42:01.866Z,21.65
2017-09-18T21:44:29.438Z,22.20
2017-09-18T21:46:57.054Z,20.67
2017-09-18T21:49:25.413Z,21.40
2017-09-18T21:51:53.039Z,22.35
2017-09-18T21:54:20.622Z,22.92
2017-09-18T21:56:48.218Z,23.17
2017-09-18T21:59:16.614Z,22.85
2017-09-18T22:01:44.262Z,20.20
2017-09-18T22:04:11.915Z,18.87
2017-09-18T22:06:40.282Z,25.80
2017-09-18T22:09:08.690Z,23.25
2017-09-18T22:11:36.276Z,21.27
2017-09-18T22:14:04.912Z,20.45
2017-09-18T22:16:32.525Z,23.23
2017-09-18T22:19:00.113Z,26.30
2017-09-18T22:21:28.538Z,25.17
2017-09-18T22:23:56.100Z,20.95
2017-09-18T22:26:23.754Z,26.75
2017-09-18T22:28:51.299Z,27.42
2017-09-18T22:31:18.937Z,25.17
2017-09-18T22:33:46.550Z,27.73
2017-09-18T22:36:14.135Z,27.17
2017-09-18T22:38:41.714Z,27.10
2017-09-18T22:41:09.329Z,24.83
2017-09-18T22:43:36.911Z,24.80
2017-09-18T22:46:04.553Z,26.37
2017-09-18T22:48:32.191Z,27.00
2017-09-18T22:51:00.504Z,30.10
2017-09-18T22:53:28.104Z,30.05
2017-09-18T22:55:55.741Z,27.25
2017-09-18T22:58:23.338Z,29.55
2017-09-18T23:00:50.990Z,28.80
2017-09-18T23:03:18.608Z,29.40
2017-09-18T23:05:46.240Z,28.55
2017-09-18T23:08:14.600Z,35.70
2017-09-18T23:10:42.197Z,28.83
2017-09-18T23:13:09.778Z,31.87
2017-09-18T23:15:37.372Z,27.73
2017-09-18T23:18:04.979Z,30.62
2017-09-18T23:20:32.676Z,28.30
2017-09-18T23:23:00.263Z,31.73
2017-09-18T23:25:27.821Z,29.55
2017-09-18T23:27:55.386Z,40.90
2017-09-18T23:30:22.998Z,31.80
2017-09-18T23:32:50.569Z,33.80
2017-09-18T23:35:18.140Z,34.50
2017-09-18T23:37:45.737Z,34.72
2017-09-18T23:40:13.319Z,33.92
2017-09-18T23:42:40.915Z,33.08
2017-09-18T23:45:08.497Z,40.97
2017-09-18T23:47:36.129Z,32.53
2017-09-18T23:50:03.719Z,36.60
2017-09-18T23:52:31.349Z,33.95
2017-09-18T23:54:58.932Z,32.40
2017-09-18T23:57:27.281Z,36.20
2017-09-18T23:59:54.860Z,31.75
